»·PEaware :: SWA2609 KDAL-KBUR

SWA2609 :: KDAL-KBUR

FLIGHT INFORMATION

Flight Status: Arrived
Operator:
Southwest Airlines
More flights by this operator :: More flights under this callsign
Pilot: Jac C. (16067)
Aircraft: BOEING 737-800
(B738)
More flights by this aircraft type
Origin: KDAL Dallas Love
United States
Destination: KBUR Bob Hope-Burbank
United States
More flights between these airports :: More routes between these airports
Route: +KOPLE JANNY5
File this flight plan on PilotEdge
Remarks: PBN / A1B1C1D1S1S2 DOF / 181208 REG / N806SB EET / KZAB0056 KZLA0218 OPR / SWA PER / C RMK / TCAS SIMBRIEF
Altitude:
(Current/Filed)
34,000ft
Speed:
(Current/Filed)
445kts
Departed: 07-Dec-18 05:40 PM
Arrived: 07-Dec-18 08:14 PM
Distance/Time
Traveled:
1077nm/2:34
Distance/Time
To Go:
Arrived

Flight Plot

Page will automatically refresh every two minutes.

Flight plan parsing failed; only flown route is shown


Map Options




Map Legend


Flown Route
Filed Route
Departure Airport
Arrival Airport
Navaid (VOR, NDB)
Fix

Horizontal Profiles

Position Reports

Time Latitude Longitude Heading Altitude Ground
Speed
07-Dec-18 17:39 33.444734 -99.458946 280 34313ft 416kts
07-Dec-18 17:40 33.483304 -99.588677 278 34317ft 412kts
07-Dec-18 17:41 33.519268 -99.718654 277 34351ft 412kts
07-Dec-18 17:41 33.549351 -99.827382 277 34369ft 411kts
07-Dec-18 17:43 33.591205 -99.979147 277 34371ft 412kts
07-Dec-18 17:44 33.626995 -100.109519 277 34370ft 411kts
07-Dec-18 17:45 33.663170 -100.239986 280 34368ft 417kts
07-Dec-18 17:45 33.699219 -100.346838 281 34371ft 417kts
07-Dec-18 17:46 33.742153 -100.475882 281 34374ft 417kts
07-Dec-18 17:48 33.792109 -100.626871 281 34376ft 416kts
07-Dec-18 17:48 33.827313 -100.733884 280 34382ft 414kts
07-Dec-18 17:49 33.869535 -100.862827 280 34366ft 415kts
07-Dec-18 17:50 33.911838 -100.992448 278 34322ft 418kts
07-Dec-18 17:52 33.961287 -101.144718 278 34294ft 419kts
07-Dec-18 17:52 33.996498 -101.253581 278 34298ft 420kts
07-Dec-18 17:53 34.038582 -101.384165 278 34297ft 419kts
07-Dec-18 17:54 34.080503 -101.514741 278 34291ft 417kts
07-Dec-18 17:55 34.122283 -101.645494 278 34271ft 418kts
07-Dec-18 17:56 34.163807 -101.776231 277 34279ft 418kts
07-Dec-18 17:57 34.205120 -101.906891 277 34278ft 417kts
07-Dec-18 17:58 34.246372 -102.037829 278 34274ft 417kts
07-Dec-18 17:59 34.284373 -102.158975 278 34278ft 417kts
07-Dec-18 18:00 34.325432 -102.290244 277 34280ft 416kts
07-Dec-18 18:01 34.366173 -102.421137 278 34283ft 418kts
07-Dec-18 18:02 34.406869 -102.552446 278 34280ft 418kts
07-Dec-18 18:03 34.446521 -102.680915 277 34288ft 416kts
07-Dec-18 18:04 34.486701 -102.812037 277 34285ft 416kts
07-Dec-18 18:05 34.511524 -102.943886 267 34287ft 398kts
07-Dec-18 18:06 34.531602 -103.076488 267 34281ft 403kts
07-Dec-18 18:07 34.552001 -103.209528 266 34276ft 405kts
07-Dec-18 18:08 34.572234 -103.343196 266 34285ft 406kts
07-Dec-18 18:09 34.592434 -103.477373 266 34273ft 404kts
07-Dec-18 18:10 34.612390 -103.610817 266 34267ft 405kts
07-Dec-18 18:11 34.632325 -103.745648 266 34279ft 409kts
07-Dec-18 18:12 34.652173 -103.881353 266 34281ft 411kts
07-Dec-18 18:13 34.671906 -104.017016 265 34279ft 407kts
07-Dec-18 18:14 34.691441 -104.152335 266 34283ft 409kts
07-Dec-18 18:15 34.710969 -104.288353 265 34279ft 409kts
07-Dec-18 18:16 34.730306 -104.424299 266 34285ft 410kts
07-Dec-18 18:17 34.749549 -104.560501 266 34660ft 410kts
07-Dec-18 18:18 34.768364 -104.694839 264 35959ft 404kts
07-Dec-18 18:19 34.786807 -104.828854 264 36300ft 406kts
07-Dec-18 18:20 34.805233 -104.963566 267 36291ft 407kts
07-Dec-18 18:21 34.823656 -105.099901 269 36292ft 413kts
07-Dec-18 18:22 34.841933 -105.234692 270 36284ft 412kts
07-Dec-18 18:23 34.860445 -105.372741 270 36285ft 414kts
07-Dec-18 18:24 34.878667 -105.509791 270 36243ft 413kts
07-Dec-18 18:25 34.896830 -105.647389 270 36212ft 412kts
07-Dec-18 18:26 34.914495 -105.783518 270 36216ft 408kts
07-Dec-18 18:27 34.931987 -105.919473 270 36211ft 407kts
07-Dec-18 18:28 34.949326 -106.055031 269 36197ft 405kts
07-Dec-18 18:29 34.966480 -106.190235 269 36189ft 403kts
07-Dec-18 18:30 34.983355 -106.324734 270 36183ft 401kts
07-Dec-18 18:31 35.000109 -106.458634 270 36190ft 400kts
07-Dec-18 18:32 35.016609 -106.591943 270 36188ft 398kts
07-Dec-18 18:33 35.032681 -106.723970 270 36209ft 396kts
07-Dec-18 18:34 35.045281 -106.856219 261 36222ft 388kts
07-Dec-18 18:35 35.039465 -106.989366 262 36212ft 400kts
07-Dec-18 18:36 35.035921 -107.125778 263 36198ft 404kts
07-Dec-18 18:37 35.032289 -107.262888 263 36207ft 404kts
07-Dec-18 18:38 35.028352 -107.403095 263 36223ft 424kts
07-Dec-18 18:39 35.024271 -107.546267 264 36229ft 410kts
07-Dec-18 18:40 35.020228 -107.683008 262 36248ft 405kts
07-Dec-18 18:41 35.015828 -107.819481 262 36239ft 404kts
07-Dec-18 18:42 35.011360 -107.955803 263 36249ft 404kts
07-Dec-18 18:43 35.006738 -108.093063 262 36243ft 404kts
07-Dec-18 18:44 35.002007 -108.229117 263 36240ft 405kts
07-Dec-18 18:45 34.997102 -108.365966 263 36241ft 402kts
07-Dec-18 18:46 34.992097 -108.502673 263 36237ft 403kts
07-Dec-18 18:47 34.986913 -108.639661 262 36226ft 404kts
07-Dec-18 18:48 34.981672 -108.771843 262 36241ft 405kts
07-Dec-18 18:49 34.976062 -108.908943 262 36233ft 404kts
07-Dec-18 18:50 34.970289 -109.045738 263 36211ft 407kts
07-Dec-18 18:51 34.963980 -109.184616 264 36181ft 414kts
07-Dec-18 18:52 34.954652 -109.324421 264 36182ft 415kts
07-Dec-18 18:53 34.945213 -109.464458 264 36181ft 416kts
07-Dec-18 18:54 34.935598 -109.604917 264 36180ft 416kts
07-Dec-18 18:55 34.926064 -109.741386 263 36192ft 418kts
07-Dec-18 18:56 34.916093 -109.881893 263 36215ft 417kts
07-Dec-18 18:57 34.905950 -110.022749 263 36224ft 418kts
07-Dec-18 18:58 34.895646 -110.163467 264 36228ft 418kts
07-Dec-18 18:59 34.885158 -110.304755 263 36230ft 419kts
07-Dec-18 19:00 34.874522 -110.446222 264 36226ft 419kts
07-Dec-18 19:01 34.863702 -110.587385 264 36224ft 420kts
07-Dec-18 19:02 34.852812 -110.727432 263 36227ft 420kts
07-Dec-18 19:03 34.841637 -110.868781 263 36231ft 419kts
07-Dec-18 19:04 34.830319 -111.009270 265 36230ft 417kts
07-Dec-18 19:05 34.818793 -111.150286 266 36233ft 422kts
07-Dec-18 19:06 34.807159 -111.291801 267 36223ft 421kts
07-Dec-18 19:07 34.795330 -111.433650 267 36211ft 422kts
07-Dec-18 19:08 34.783301 -111.575356 267 36209ft 421kts
07-Dec-18 19:09 34.771127 -111.716833 266 36200ft 422kts
07-Dec-18 19:10 34.758749 -111.858507 266 36205ft 422kts
07-Dec-18 19:11 34.746401 -111.997259 269 36230ft 414kts
07-Dec-18 19:12 34.733970 -112.136542 269 36222ft 414kts
07-Dec-18 19:13 34.721393 -112.275490 269 36211ft 414kts
07-Dec-18 19:14 34.708652 -112.414417 269 36204ft 415kts
07-Dec-18 19:15 34.704898 -112.552976 278 36204ft 408kts
07-Dec-18 19:16 34.710670 -112.689864 277 36212ft 408kts
07-Dec-18 19:17 34.715884 -112.827902 277 36210ft 408kts
07-Dec-18 19:18 34.720852 -112.964059 278 36208ft 401kts
07-Dec-18 19:19 34.725643 -113.098685 278 36207ft 398kts
07-Dec-18 19:20 34.730308 -113.233195 278 36210ft 399kts
07-Dec-18 19:21 34.734824 -113.367901 278 36213ft 399kts
07-Dec-18 19:22 34.739197 -113.502421 278 36211ft 399kts
07-Dec-18 19:23 34.743441 -113.637348 278 36210ft 399kts
07-Dec-18 19:24 34.747412 -113.771369 277 36218ft 400kts
07-Dec-18 19:25 34.751263 -113.906267 277 36207ft 400kts
07-Dec-18 19:26 34.754988 -114.041140 277 36194ft 399kts
07-Dec-18 19:27 34.758583 -114.175988 277 36188ft 399kts
07-Dec-18 19:28 34.762057 -114.311140 277 36185ft 400kts
07-Dec-18 19:29 34.777830 -114.440634 265 36225ft 398kts
07-Dec-18 19:30 34.748120 -114.563027 261 36190ft 372kts
07-Dec-18 19:31 34.722035 -114.683905 274 36228ft 361kts
07-Dec-18 19:32 34.720414 -114.805651 276 36196ft 363kts
07-Dec-18 19:33 34.719260 -114.932996 275 36199ft 392kts
07-Dec-18 19:34 34.717816 -115.068200 275 36186ft 400kts
07-Dec-18 19:35 34.716173 -115.202360 275 36189ft 397kts
07-Dec-18 19:36 34.714416 -115.336596 275 36187ft 397kts
07-Dec-18 19:37 34.712534 -115.470442 275 36193ft 397kts
07-Dec-18 19:39 34.710521 -115.604517 275 36251ft 397kts
07-Dec-18 19:40 34.708382 -115.734279 274 36302ft 398kts
07-Dec-18 19:41 34.705961 -115.868677 274 36300ft 397kts
07-Dec-18 19:42 34.703428 -116.002558 274 36299ft 398kts
07-Dec-18 19:43 34.700755 -116.137062 274 36297ft 398kts
07-Dec-18 19:44 34.697894 -116.265888 275 36263ft 356kts
07-Dec-18 19:45 34.695286 -116.385926 275 36261ft 357kts
07-Dec-18 19:46 34.692587 -116.506727 275 34994ft 361kts
07-Dec-18 19:47 34.689718 -116.627330 275 32731ft 353kts
07-Dec-18 19:48 34.686735 -116.742980 275 30975ft 337kts
07-Dec-18 19:49 34.683762 -116.854508 275 29230ft 326kts
07-Dec-18 19:50 34.680889 -116.964948 274 27529ft 343kts
07-Dec-18 19:51 34.677716 -117.078711 274 25758ft 329kts
07-Dec-18 19:52 34.674582 -117.187197 274 24113ft 317kts
07-Dec-18 19:53 34.671482 -117.292221 274 22521ft 307kts
07-Dec-18 19:54 34.668409 -117.394112 273 21000ft 298kts
07-Dec-18 19:55 34.665344 -117.493598 273 19528ft 292kts
07-Dec-18 19:56 34.662289 -117.590612 273 18111ft 286kts
07-Dec-18 19:57 34.659185 -117.687363 272 16547ft 288kts
07-Dec-18 19:57 34.656520 -117.767547 272 15407ft 284kts
07-Dec-18 19:59 34.652315 -117.878182 267 14055ft 274kts
07-Dec-18 19:59 34.643128 -117.958923 265 13321ft 297kts
07-Dec-18 20:01 34.630097 -118.073614 261 11725ft 290kts
07-Dec-18 20:01 34.611982 -118.151535 258 10674ft 285kts
07-Dec-18 20:02 34.591562 -118.242969 257 9537ft 277kts
07-Dec-18 20:03 34.571556 -118.332810 257 8375ft 273kts
07-Dec-18 20:05 34.544703 -118.432424 236 8045ft 275kts
07-Dec-18 20:05 34.493039 -118.478446 211 8023ft 281kts
07-Dec-18 20:06 34.426682 -118.528642 215 7007ft 281kts
07-Dec-18 20:07 34.358804 -118.573190 190 5892ft 281kts
07-Dec-18 20:08 34.282774 -118.571450 176 4957ft 262kts
07-Dec-18 20:09 34.216607 -118.555244 136 3702ft 228kts
07-Dec-18 20:10 34.199932 -118.493863 88 2753ft 183kts
07-Dec-18 20:11 34.199131 -118.441373 88 1921ft 145kts
07-Dec-18 20:12 34.198189 -118.391630 89 1135ft 146kts
07-Dec-18 20:13 34.197692 -118.352372 89 742ft 29kts
07-Dec-18 20:14 34.197176 -118.351231 270 742ft 12kts
07-Dec-18 20:15 34.196809 -118.352363 182 742ft 0kts

Navigation Log

Ident Type
Flight plan parsing failed, navigation log unavailable